createdAt,value
2023-12-18T00:02:22.785Z,10.00
2023-12-18T00:07:25.329Z,11.75
2023-12-18T00:12:28.032Z,8.60
2023-12-18T00:17:30.673Z,13.60
2023-12-18T00:22:33.283Z,10.02
2023-12-18T00:27:36.074Z,10.13
2023-12-18T00:32:38.662Z,11.52
2023-12-18T00:37:41.498Z,10.48
2023-12-18T00:42:44.274Z,10.98
2023-12-18T00:47:46.820Z,12.40
2023-12-18T00:52:49.397Z,8.85
2023-12-18T00:57:54.537Z,12.35
2023-12-18T01:02:57.436Z,10.38
2023-12-18T01:08:00.179Z,8.65
2023-12-18T01:13:02.710Z,8.23
2023-12-18T01:18:05.686Z,9.30
2023-12-18T01:23:08.269Z,14.27
2023-12-18T01:28:10.755Z,12.55
2023-12-18T01:33:13.357Z,8.85
2023-12-18T01:38:15.946Z,11.75
2023-12-18T01:43:28.635Z,10.13
2023-12-18T01:48:33.189Z,10.60
2023-12-18T01:53:40.733Z,10.98
2023-12-18T01:58:44.847Z,14.48
2023-12-18T02:03:48.589Z,17.55
2023-12-18T02:08:51.624Z,13.95
2023-12-18T02:13:54.258Z,10.45
2023-12-18T02:18:56.977Z,9.73
2023-12-18T02:24:01.771Z,9.23
2023-12-18T02:29:04.279Z,13.88
2023-12-18T02:34:07.139Z,9.88
2023-12-18T02:39:09.840Z,11.68
2023-12-18T02:44:12.877Z,10.65
2023-12-18T02:49:15.584Z,11.38
2023-12-18T02:54:18.238Z,12.82
2023-12-18T02:59:20.779Z,13.82
2023-12-18T03:04:23.382Z,13.02
2023-12-18T03:09:25.997Z,12.45
2023-12-18T03:14:28.573Z,16.85
2023-12-18T03:19:31.390Z,12.88
2023-12-18T03:24:34.774Z,12.15
2023-12-18T03:29:38.270Z,12.20
2023-12-18T03:34:40.931Z,14.85
2023-12-18T03:39:43.591Z,10.30
2023-12-18T03:44:48.247Z,14.75
2023-12-18T03:49:50.959Z,13.20
2023-12-18T03:54:53.505Z,13.27
2023-12-18T03:59:56.159Z,24.33
2023-12-18T04:04:58.852Z,14.52
2023-12-18T04:10:01.419Z,11.90
2023-12-18T04:15:07.871Z,12.35
2023-12-18T04:20:10.931Z,13.52
2023-12-18T04:25:13.652Z,16.27
2023-12-18T04:30:16.387Z,11.32
2023-12-18T04:35:18.991Z,18.00
2023-12-18T04:40:21.619Z,17.08
2023-12-18T04:45:24.332Z,14.18
2023-12-18T04:50:26.971Z,15.43
2023-12-18T04:55:29.551Z,15.90
2023-12-18T05:00:32.076Z,14.90
2023-12-18T05:05:34.717Z,14.70
2023-12-18T05:10:37.309Z,9.27
2023-12-18T05:15:39.874Z,15.80
2023-12-18T05:20:42.614Z,14.60
2023-12-18T05:25:45.316Z,14.75
2023-12-18T05:30:47.963Z,11.95
2023-12-18T05:35:50.586Z,13.80
2023-12-18T05:40:53.182Z,10.82
2023-12-18T05:45:55.907Z,11.63
2023-12-18T05:50:58.417Z,12.23
2023-12-18T05:56:00.985Z,9.48
2023-12-18T06:01:03.738Z,15.15
2023-12-18T06:06:08.495Z,11.30
2023-12-18T06:11:11.281Z,11.95
2023-12-18T06:16:13.982Z,11.57
2023-12-18T06:21:16.851Z,10.70
2023-12-18T06:26:21.958Z,8.90
2023-12-18T06:31:26.606Z,11.25
2023-12-18T06:36:30.964Z,11.88
2023-12-18T06:41:35.738Z,12.43
2023-12-18T06:46:38.785Z,11.77
2023-12-18T06:51:41.692Z,11.27
2023-12-18T06:56:44.679Z,11.75
2023-12-18T07:01:47.611Z,10.35
2023-12-18T07:06:50.841Z,11.32
2023-12-18T07:11:54.109Z,12.75
2023-12-18T07:16:57.185Z,10.43
2023-12-18T07:21:59.962Z,10.52
2023-12-18T07:27:02.937Z,12.57
2023-12-18T07:32:06.009Z,9.45
2023-12-18T07:37:08.794Z,11.70
2023-12-18T07:42:11.372Z,12.15
2023-12-18T07:47:13.941Z,10.25
2023-12-18T07:52:18.265Z,11.45
2023-12-18T07:57:21.026Z,9.95
2023-12-18T08:02:23.549Z,10.75
2023-12-18T08:07:26.061Z,7.05
2023-12-18T08:12:28.726Z,12.13
2023-12-18T08:17:39.334Z,10.35
2023-12-18T08:22:42.140Z,8.18
2023-12-18T08:27:44.932Z,8.95
2023-12-18T08:32:47.610Z,9.45
2023-12-18T08:37:50.177Z,9.38
2023-12-18T08:42:53.664Z,10.20
2023-12-18T08:48:00.856Z,8.77
2023-12-18T08:53:03.803Z,9.32
2023-12-18T08:58:10.283Z,6.05
2023-12-18T09:03:13.135Z,5.45
2023-12-18T09:08:16.249Z,8.07
2023-12-18T09:13:18.844Z,5.25
2023-12-18T09:18:21.753Z,7.70
2023-12-18T09:23:24.369Z,10.02
2023-12-18T09:28:26.935Z,6.68
2023-12-18T09:33:29.660Z,6.75
2023-12-18T09:38:32.296Z,4.68
2023-12-18T09:43:34.995Z,5.15
2023-12-18T09:48:37.670Z,8.13
2023-12-18T09:53:40.686Z,5.75
2023-12-18T09:58:45.244Z,6.50
2023-12-18T10:03:47.941Z,7.00
2023-12-18T10:08:52.816Z,6.18
2023-12-18T10:13:55.669Z,7.13
2023-12-18T10:18:58.487Z,8.65
2023-12-18T10:24:02.385Z,10.00
2023-12-18T10:29:05.063Z,10.25
2023-12-18T10:34:07.875Z,11.07
2023-12-18T10:39:14.417Z,7.88
2023-12-18T10:44:18.229Z,9.43
2023-12-18T10:49:24.111Z,7.45
2023-12-18T10:54:27.520Z,6.28
2023-12-18T10:59:31.698Z,5.88
2023-12-18T11:04:37.817Z,6.13
2023-12-18T11:09:40.819Z,8.82
2023-12-18T11:14:52.592Z,7.10
2023-12-18T11:19:58.251Z,5.45
2023-12-18T11:25:01.236Z,6.75
2023-12-18T11:30:05.206Z,7.10
2023-12-18T11:35:15.001Z,6.45
2023-12-18T11:40:33.111Z,6.35
2023-12-18T11:45:37.652Z,4.53
2023-12-18T11:50:42.836Z,5.35
2023-12-18T11:55:50.226Z,6.82
2023-12-18T12:00:59.065Z,4.78
2023-12-18T12:06:04.758Z,5.10
2023-12-18T12:11:09.960Z,6.38
2023-12-18T12:16:19.075Z,6.70
2023-12-18T12:21:24.893Z,7.70
2023-12-18T12:26:31.718Z,5.90
2023-12-18T12:31:34.822Z,6.72
2023-12-18T12:36:37.623Z,6.50
2023-12-18T12:41:40.322Z,8.98
2023-12-18T12:46:44.206Z,8.02
2023-12-18T12:51:48.977Z,5.97
2023-12-18T12:56:51.771Z,7.30
2023-12-18T13:01:54.378Z,8.18
2023-12-18T13:06:56.984Z,5.75
2023-12-18T13:12:00.906Z,7.53
2023-12-18T13:17:04.543Z,8.48
2023-12-18T13:22:10.336Z,10.00
2023-12-18T13:27:19.200Z,10.07
2023-12-18T13:32:22.544Z,9.10
2023-12-18T13:37:25.570Z,7.00
2023-12-18T13:42:30.209Z,8.45
2023-12-18T13:47:32.981Z,9.18
2023-12-18T13:52:35.618Z,7.18
2023-12-18T13:57:45.743Z,6.75
2023-12-18T14:02:51.266Z,4.70
2023-12-18T14:07:53.916Z,6.03
2023-12-18T14:12:56.471Z,8.82
2023-12-18T14:17:59.246Z,9.45
2023-12-18T14:23:01.975Z,7.93
2023-12-18T14:28:05.017Z,8.63
2023-12-18T14:33:07.934Z,7.45
2023-12-18T14:38:10.672Z,5.63
2023-12-18T14:43:14.170Z,8.23
2023-12-18T14:48:20.844Z,5.45
2023-12-18T14:53:28.589Z,7.18
2023-12-18T14:58:31.297Z,8.10
2023-12-18T15:03:34.173Z,6.53
2023-12-18T15:08:37.399Z,6.60
2023-12-18T15:13:40.030Z,7.28
2023-12-18T15:18:42.670Z,5.75
2023-12-18T15:23:45.513Z,7.72
2023-12-18T15:28:48.230Z,8.18
2023-12-18T15:33:50.942Z,4.30
2023-12-18T15:38:53.584Z,7.30
2023-12-18T15:43:56.842Z,9.07
2023-12-18T15:48:59.664Z,9.85
2023-12-18T15:54:02.396Z,12.20
2023-12-18T15:59:05.182Z,15.60
2023-12-18T16:04:07.810Z,13.00
2023-12-18T16:09:13.923Z,8.43
2023-12-18T16:14:16.441Z,9.07
2023-12-18T16:19:19.264Z,8.15
2023-12-18T16:24:21.977Z,10.18
2023-12-18T16:29:24.792Z,10.55
2023-12-18T16:34:28.792Z,12.50
2023-12-18T16:39:32.603Z,8.48
2023-12-18T16:44:35.944Z,12.57
2023-12-18T16:49:39.337Z,10.43
2023-12-18T16:54:42.254Z,11.95
2023-12-18T16:59:45.153Z,11.52
2023-12-18T17:04:47.971Z,16.42
2023-12-18T17:09:51.084Z,16.40
2023-12-18T17:14:53.742Z,17.40
2023-12-18T17:19:57.255Z,12.25
2023-12-18T17:24:59.867Z,13.13
2023-12-18T17:30:02.431Z,13.98
2023-12-18T17:35:08.347Z,17.55
2023-12-18T17:40:12.306Z,15.32
2023-12-18T17:45:15.059Z,13.63
2023-12-18T17:50:19.363Z,12.90
2023-12-18T17:55:21.865Z,13.00
2023-12-18T18:00:28.028Z,14.23
2023-12-18T18:05:31.291Z,13.65
2023-12-18T18:10:34.226Z,14.55
2023-12-18T18:15:36.826Z,14.75
2023-12-18T18:20:39.423Z,14.90
2023-12-18T18:25:42.703Z,16.10
2023-12-18T18:30:47.703Z,14.90
2023-12-18T18:35:50.450Z,12.73
2023-12-18T18:40:53.240Z,12.93
2023-12-18T18:45:56.021Z,13.77
2023-12-18T18:50:59.630Z,13.82
2023-12-18T18:56:08.683Z,14.45
2023-12-18T19:01:11.380Z,13.85
2023-12-18T19:06:14.197Z,14.43
2023-12-18T19:11:16.767Z,14.50
2023-12-18T19:16:19.359Z,12.82
2023-12-18T19:21:22.010Z,12.23
2023-12-18T19:26:24.814Z,13.75
2023-12-18T19:31:27.797Z,12.02
2023-12-18T19:36:30.813Z,9.88
2023-12-18T19:41:37.021Z,12.95
2023-12-18T19:46:39.652Z,13.27
2023-12-18T19:51:43.019Z,14.43
2023-12-18T19:56:45.594Z,11.32
2023-12-18T20:01:48.580Z,12.55
2023-12-18T20:06:51.275Z,16.85
2023-12-18T20:11:54.003Z,14.90
2023-12-18T20:16:56.723Z,12.95
2023-12-18T20:21:59.316Z,12.63
2023-12-18T20:27:02.480Z,11.27
2023-12-18T20:32:06.109Z,11.32
2023-12-18T20:37:08.818Z,7.82
2023-12-18T20:42:13.435Z,11.73
2023-12-18T20:47:15.998Z,14.00
2023-12-18T20:52:18.665Z,11.68
2023-12-18T20:57:21.403Z,12.38
2023-12-18T21:02:25.402Z,14.80
2023-12-18T21:07:28.028Z,13.85
2023-12-18T21:12:30.665Z,11.35
2023-12-18T21:17:33.441Z,11.00
2023-12-18T21:22:37.861Z,12.52
2023-12-18T21:27:42.662Z,13.77
2023-12-18T21:32:45.696Z,15.02
2023-12-18T21:37:48.946Z,17.50
2023-12-18T21:42:51.541Z,12.85
2023-12-18T21:47:54.245Z,14.43
2023-12-18T21:52:56.972Z,15.82
2023-12-18T21:57:59.565Z,15.13
2023-12-18T22:03:02.327Z,14.20
2023-12-18T22:08:05.752Z,17.92
2023-12-18T22:13:08.391Z,13.15
2023-12-18T22:18:11.091Z,9.88
2023-12-18T22:23:13.678Z,12.20
2023-12-18T22:28:17.024Z,11.77
2023-12-18T22:33:19.719Z,11.32
2023-12-18T22:38:22.555Z,12.88
2023-12-18T22:43:25.468Z,12.90
2023-12-18T22:48:28.290Z,9.45
2023-12-18T22:53:30.953Z,14.80
2023-12-18T22:58:33.499Z,8.00
2023-12-18T23:03:36.173Z,10.60
2023-12-18T23:08:38.968Z,12.80
2023-12-18T23:13:42.425Z,12.18
2023-12-18T23:18:45.160Z,13.85
2023-12-18T23:23:47.759Z,13.63
2023-12-18T23:28:53.273Z,13.73
2023-12-18T23:33:55.878Z,9.73
2023-12-18T23:38:58.475Z,13.02
2023-12-18T23:44:01.114Z,10.43
2023-12-18T23:49:03.816Z,12.95
2023-12-18T23:54:26.002Z,11.13
2023-12-18T23:59:28.597Z,9.50
